Wetterdaten: Mittwoch, 07.11.2018
Datum Zeit Temp. I. Temp. A. Feuchte I. Feuchte A. Luftdruck Regen Wind Richtung Richtung Taupunkt Windchill
07.11.2018 00:03 24,0 °C 4,5 °C 51 % 92 % 1008,1 hPa 0,0 l/m² 2,2 km/h (1 Bft) O 90 ° 3,3 °C 4,5 °C
07.11.2018 00:13 24,0 °C 4,5 °C 51 % 92 % 1008,3 hPa 0,0 l/m² 2,5 km/h (1 Bft) O 90 ° 3,3 °C 4,5 °C
07.11.2018 00:23 23,9 °C 4,7 °C 50 % 92 % 1008,4 hPa 0,0 l/m² 0,0 km/h (0 Bft) O 90 ° 3,5 °C 4,7 °C
07.11.2018 00:33 23,9 °C 4,6 °C 50 % 92 % 1008,4 hPa 0,0 l/m² 0,0 km/h (0 Bft) O 90 ° 3,4 °C 4,6 °C
07.11.2018 00:43 23,8 °C 4,5 °C 50 % 92 % 1008,5 hPa 0,0 l/m² 0,0 km/h (0 Bft) O 90 ° 3,3 °C 4,5 °C
07.11.2018 00:53 23,8 °C 4,3 °C 51 % 92 % 1008,4 hPa 0,0 l/m² 1,8 km/h (1 Bft) O 90 ° 3,1 °C 4,3 °C
07.11.2018 01:03 23,8 °C 4,3 °C 51 % 92 % 1008,5 hPa 0,0 l/m² 1,8 km/h (1 Bft) O 90 ° 3,1 °C 4,3 °C
07.11.2018 01:13 23,8 °C 4,1 °C 51 % 92 % 1008,6 hPa 0,0 l/m² 0,0 km/h (0 Bft) O 90 ° 2,9 °C 4,1 °C
07.11.2018 01:23 23,8 °C 3,9 °C 51 % 92 % 1008,6 hPa 0,0 l/m² 0,0 km/h (0 Bft) O 90 ° 2,7 °C 3,9 °C
07.11.2018 01:33 23,8 °C 3,9 °C 51 % 92 % 1008,6 hPa 0,0 l/m² 0,0 km/h (0 Bft) O 90 ° 2,7 °C 3,9 °C
07.11.2018 01:43 23,8 °C 3,8 °C 51 % 92 % 1008,4 hPa 0,0 l/m² 0,0 km/h (0 Bft) O 90 ° 2,6 °C 3,8 °C
07.11.2018 01:53 23,8 °C 3,6 °C 51 % 92 % 1008,3 hPa 0,0 l/m² 0,0 km/h (0 Bft) O 90 ° 2,4 °C 3,6 °C
07.11.2018 02:03 23,8 °C 3,6 °C 51 % 93 % 1008,3 hPa 0,0 l/m² 0,0 km/h (0 Bft) O 90 ° 2,6 °C 3,6 °C
07.11.2018 02:13 23,8 °C 3,5 °C 51 % 93 % 1008,4 hPa 0,0 l/m² 0,0 km/h (0 Bft) O 90 ° 2,5 °C 3,5 °C
07.11.2018 02:23 23,8 °C 3,4 °C 51 % 93 % 1008,8 hPa 0,0 l/m² 0,0 km/h (0 Bft) O 90 ° 2,4 °C 3,4 °C
07.11.2018 02:33 23,7 °C 3,3 °C 51 % 93 % 1008,7 hPa 0,0 l/m² 0,0 km/h (0 Bft) O 90 ° 2,3 °C 3,3 °C
07.11.2018 02:43 23,7 °C 3,1 °C 51 % 93 % 1008,6 hPa 0,0 l/m² 0,0 km/h (0 Bft) O 90 ° 2,1 °C 3,1 °C
07.11.2018 02:53 23,7 °C 3,1 °C 51 % 93 % 1008,5 hPa 0,0 l/m² 0,0 km/h (0 Bft) O 90 ° 2,1 °C 3,1 °C
07.11.2018 03:03 23,7 °C 3,0 °C 51 % 93 % 1008,4 hPa 0,0 l/m² 0,0 km/h (0 Bft) O 90 ° 2,0 °C 3,0 °C
07.11.2018 03:13 23,6 °C 3,2 °C 51 % 93 % 1008,4 hPa 0,0 l/m² 0,0 km/h (0 Bft) O 90 ° 2,2 °C 3,2 °C
07.11.2018 03:23 23,6 °C 3,2 °C 51 % 93 % 1008,5 hPa 0,0 l/m² 0,0 km/h (0 Bft) O 90 ° 2,2 °C 3,2 °C
07.11.2018 03:33 23,6 °C 3,1 °C 51 % 93 % 1008,4 hPa 0,0 l/m² 3,2 km/h (1 Bft) O 90 ° 2,1 °C 3,1 °C
07.11.2018 03:43 23,6 °C 3,5 °C 51 % 93 % 1008,6 hPa 0,0 l/m² 0,0 km/h (0 Bft) O 90 ° 2,5 °C 3,5 °C
07.11.2018 03:53 23,6 °C 3,4 °C 51 % 93 % 1008,4 hPa 0,0 l/m² 0,0 km/h (0 Bft) O 90 ° 2,4 °C 3,4 °C
07.11.2018 04:03 23,6 °C 3,2 °C 51 % 93 % 1008,4 hPa 0,0 l/m² 0,0 km/h (0 Bft) O 90 ° 2,2 °C 3,2 °C
07.11.2018 04:13 23,5 °C 3,3 °C 51 % 93 % 1008,5 hPa 0,0 l/m² 0,0 km/h (0 Bft) O 90 ° 2,3 °C 3,3 °C
07.11.2018 04:23 23,5 °C 3,5 °C 51 % 93 % 1008,6 hPa 0,0 l/m² 0,0 km/h (0 Bft) O-SO 112 ° 2,5 °C 3,5 °C
07.11.2018 04:33 23,5 °C 3,3 °C 51 % 93 % 1008,6 hPa 0,0 l/m² 1,8 km/h (1 Bft) O-SO 112 ° 2,3 °C 3,3 °C
07.11.2018 04:43 23,5 °C 3,3 °C 51 % 93 % 1008,6 hPa 0,0 l/m² 1,4 km/h (1 Bft) O 90 ° 2,3 °C 3,3 °C
07.11.2018 04:53 23,5 °C 3,2 °C 51 % 93 % 1008,7 hPa 0,0 l/m² 0,0 km/h (0 Bft) O 90 ° 2,2 °C 3,2 °C
07.11.2018 05:03 23,5 °C 2,9 °C 50 % 93 % 1008,7 hPa 0,0 l/m² 0,0 km/h (0 Bft) O 90 ° 1,9 °C 2,9 °C
07.11.2018 05:13 23,5 °C 2,9 °C 50 % 93 % 1008,7 hPa 0,0 l/m² 0,0 km/h (0 Bft) O 90 ° 1,9 °C 2,9 °C
07.11.2018 05:23 23,4 °C 2,8 °C 50 % 93 % 1008,6 hPa 0,0 l/m² 0,0 km/h (0 Bft) O 90 ° 1,8 °C 2,8 °C
07.11.2018 05:33 23,5 °C 2,8 °C 50 % 93 % 1008,6 hPa 0,0 l/m² 0,0 km/h (0 Bft) O 90 ° 1,8 °C 2,8 °C
07.11.2018 05:43 23,4 °C 2,6 °C 50 % 93 % 1008,6 hPa 0,0 l/m² 0,0 km/h (0 Bft) O 90 ° 1,6 °C 2,6 °C
07.11.2018 05:53 23,4 °C 2,5 °C 49 % 93 % 1008,6 hPa 0,0 l/m² 2,2 km/h (1 Bft) O 90 ° 1,5 °C 2,5 °C
07.11.2018 06:03 23,4 °C 2,3 °C 48 % 93 % 1008,6 hPa 0,0 l/m² 0,0 km/h (0 Bft) O 90 ° 1,3 °C 2,3 °C
07.11.2018 06:13 23,4 °C 2,4 °C 48 % 93 % 1008,6 hPa 0,0 l/m² 0,0 km/h (0 Bft) O 90 ° 1,4 °C 2,4 °C
07.11.2018 06:23 23,4 °C 2,3 °C 48 % 93 % 1008,7 hPa 0,0 l/m² 0,0 km/h (0 Bft) O 90 ° 1,3 °C 2,3 °C
07.11.2018 06:33 23,4 °C 2,1 °C 48 % 94 % 1008,9 hPa 0,0 l/m² 2,5 km/h (1 Bft) O-SO 112 ° 1,2 °C 2,1 °C
07.11.2018 06:43 23,4 °C 2,3 °C 48 % 94 % 1008,9 hPa 0,0 l/m² 2,9 km/h (1 Bft) O-SO 112 ° 1,4 °C 2,3 °C
07.11.2018 06:53 23,3 °C 2,3 °C 48 % 94 % 1008,9 hPa 0,0 l/m² 2,2 km/h (1 Bft) O-SO 112 ° 1,4 °C 2,3 °C
07.11.2018 07:03 23,3 °C 2,3 °C 48 % 94 % 1009,0 hPa 0,0 l/m² 4,0 km/h (1 Bft) O-SO 112 ° 1,4 °C 2,3 °C
07.11.2018 07:13 23,3 °C 2,3 °C 48 % 94 % 1009,3 hPa 0,0 l/m² 3,2 km/h (1 Bft) O 90 ° 1,4 °C 2,3 °C
07.11.2018 07:23 23,3 °C 2,3 °C 48 % 94 % 1009,4 hPa 0,0 l/m² 0,0 km/h (0 Bft) O-SO 112 ° 1,4 °C 2,3 °C
07.11.2018 07:33 23,3 °C 2,4 °C 48 % 94 % 1009,6 hPa 0,0 l/m² 0,0 km/h (0 Bft) O-SO 112 ° 1,5 °C 2,4 °C
07.11.2018 07:43 23,2 °C 2,6 °C 48 % 94 % 1009,7 hPa 0,0 l/m² 0,0 km/h (0 Bft) O-SO 112 ° 1,7 °C 2,6 °C
07.11.2018 07:53 23,2 °C 2,5 °C 48 % 94 % 1009,7 hPa 0,0 l/m² 0,0 km/h (0 Bft) O-SO 112 ° 1,6 °C 2,5 °C
07.11.2018 08:03 23,2 °C 2,4 °C 48 % 94 % 1009,8 hPa 0,0 l/m² 0,0 km/h (0 Bft) O-SO 112 ° 1,5 °C 2,4 °C
07.11.2018 08:13 23,2 °C 2,5 °C 48 % 94 % 1010,1 hPa 0,0 l/m² 0,0 km/h (0 Bft) O-SO 112 ° 1,6 °C 2,5 °C
07.11.2018 08:23 23,2 °C 2,8 °C 48 % 94 % 1010,0 hPa 0,0 l/m² 0,0 km/h (0 Bft) O-SO 112 ° 1,9 °C 2,8 °C
07.11.2018 08:33 23,3 °C 3,1 °C 47 % 94 % 1009,8 hPa 0,0 l/m² 0,0 km/h (0 Bft) O-SO 112 ° 2,2 °C 3,1 °C
07.11.2018 08:43 23,4 °C 3,3 °C 48 % 94 % 1010,1 hPa 0,0 l/m² 0,0 km/h (0 Bft) O-SO 112 ° 2,4 °C 3,3 °C
07.11.2018 08:53 23,4 °C 3,6 °C 47 % 94 % 1010,1 hPa 0,0 l/m² 0,0 km/h (0 Bft) O-SO 112 ° 2,7 °C 3,6 °C
07.11.2018 09:03 23,4 °C 3,9 °C 48 % 94 % 1010,2 hPa 0,0 l/m² 0,0 km/h (0 Bft) O-SO 112 ° 3,0 °C 3,9 °C
07.11.2018 09:13 23,5 °C 4,5 °C 48 % 94 % 1010,2 hPa 0,0 l/m² 0,0 km/h (0 Bft) O-SO 112 ° 3,6 °C 4,5 °C
07.11.2018 09:23 23,6 °C 5,5 °C 48 % 94 % 1010,2 hPa 0,0 l/m² 0,0 km/h (0 Bft) O-SO 112 ° 4,6 °C 5,5 °C
07.11.2018 09:33 23,6 °C 5,9 °C 49 % 94 % 1010,2 hPa 0,0 l/m² 0,0 km/h (0 Bft) O-SO 112 ° 5,0 °C 5,9 °C
07.11.2018 09:43 23,7 °C 6,6 °C 49 % 94 % 1010,1 hPa 0,0 l/m² 0,0 km/h (0 Bft) O-SO 112 ° 5,7 °C 6,6 °C
07.11.2018 09:53 23,7 °C 7,8 °C 48 % 94 % 1009,9 hPa 0,0 l/m² 0,0 km/h (0 Bft) O-SO 112 ° 6,9 °C 7,8 °C
07.11.2018 10:03 23,8 °C 9,2 °C 48 % 94 % 1010,1 hPa 0,0 l/m² 0,0 km/h (0 Bft) O-SO 112 ° 8,3 °C 9,2 °C
07.11.2018 10:13 23,8 °C 10,0 °C 48 % 94 % 1010,3 hPa 0,0 l/m² 0,0 km/h (0 Bft) O-SO 112 ° 9,1 °C 10,0 °C
07.11.2018 10:23 23,8 °C 11,3 °C 48 % 94 % 1010,4 hPa 0,0 l/m² 0,0 km/h (0 Bft) O-SO 112 ° 10,4 °C 11,3 °C
07.11.2018 10:33 23,8 °C 11,9 °C 47 % 93 % 1010,4 hPa 0,0 l/m² 8,6 km/h (2 Bft) W-SW 247 ° 10,8 °C 10,5 °C
07.11.2018 10:43 23,8 °C 12,1 °C 47 % 93 % 1010,4 hPa 0,0 l/m² 4,7 km/h (1 Bft) S-SW 202 ° 11,0 °C 12,1 °C
07.11.2018 10:53 23,8 °C 12,4 °C 47 % 92 % 1010,6 hPa 0,0 l/m² 8,3 km/h (2 Bft) W-SW 247 ° 11,1 °C 11,2 °C
07.11.2018 11:03 23,8 °C 13,1 °C 48 % 92 % 1010,6 hPa 0,0 l/m² 6,5 km/h (2 Bft) W-SW 247 ° 11,8 °C 13,1 °C
07.11.2018 11:13 23,8 °C 13,5 °C 47 % 91 % 1010,4 hPa 0,0 l/m² 10,4 km/h (2 Bft) S-SW 202 ° 12,1 °C 11,3 °C
07.11.2018 11:23 23,8 °C 13,9 °C 47 % 89 % 1010,4 hPa 0,0 l/m² 10,8 km/h (2 Bft) W-SW 247 ° 12,1 °C 11,5 °C
07.11.2018 11:33 23,8 °C 14,1 °C 47 % 86 % 1010,4 hPa 0,0 l/m² 13,3 km/h (3 Bft) SW 225 ° 11,8 °C 10,7 °C
07.11.2018 11:43 23,9 °C 14,1 °C 48 % 84 % 1010,4 hPa 0,0 l/m² 6,5 km/h (2 Bft) S-SW 202 ° 11,4 °C 14,1 °C
07.11.2018 11:53 23,9 °C 14,3 °C 48 % 83 % 1010,7 hPa 0,0 l/m² 16,9 km/h (3 Bft) SW 225 ° 11,5 °C 9,7 °C
07.11.2018 12:03 24,0 °C 14,8 °C 48 % 80 % 1010,6 hPa 0,0 l/m² 16,6 km/h (3 Bft) SW 225 ° 11,4 °C 10,4 °C
07.11.2018 12:13 24,1 °C 14,9 °C 48 % 79 % 1010,4 hPa 0,0 l/m² 11,5 km/h (2 Bft) SW 225 ° 11,3 °C 12,4 °C
07.11.2018 12:23 24,2 °C 15,3 °C 47 % 77 % 1010,5 hPa 0,0 l/m² 6,1 km/h (2 Bft) S-SW 202 ° 11,3 °C 15,3 °C
07.11.2018 12:33 24,2 °C 15,4 °C 47 % 76 % 1010,3 hPa 0,0 l/m² 8,6 km/h (2 Bft) S-SW 202 ° 11,2 °C 14,2 °C
07.11.2018 12:43 24,2 °C 15,8 °C 47 % 75 % 1010,2 hPa 0,0 l/m² 4,7 km/h (1 Bft) S 180 ° 11,4 °C 15,8 °C
07.11.2018 12:53 24,2 °C 16,2 °C 48 % 73 % 1010,2 hPa 0,0 l/m² 14,4 km/h (3 Bft) S-SW 202 ° 11,4 °C 12,8 °C
07.11.2018 13:03 24,2 °C 16,4 °C 47 % 72 % 1010,2 hPa 0,0 l/m² 6,1 km/h (2 Bft) SW 225 ° 11,3 °C 16,4 °C
07.11.2018 13:13 24,2 °C 16,7 °C 47 % 71 % 1010,2 hPa 0,0 l/m² 10,1 km/h (2 Bft) S 180 ° 11,4 °C 15,0 °C
07.11.2018 13:23 24,3 °C 16,8 °C 47 % 70 % 1010,2 hPa 0,0 l/m² 9,4 km/h (2 Bft) S 180 ° 11,3 °C 15,4 °C
07.11.2018 13:33 24,3 °C 17,2 °C 47 % 69 % 1010,0 hPa 0,0 l/m² 5,0 km/h (1 Bft) S 180 ° 11,5 °C 17,2 °C
07.11.2018 13:43 24,4 °C 17,6 °C 47 % 66 % 1010,2 hPa 0,0 l/m² 14,8 km/h (3 Bft) SW 225 ° 11,2 °C 14,4 °C
07.11.2018 13:53 24,4 °C 17,8 °C 47 % 65 % 1010,3 hPa 0,0 l/m² 8,3 km/h (2 Bft) W-SW 247 ° 11,1 °C 16,9 °C
07.11.2018 14:03 24,4 °C 18,1 °C 47 % 63 % 1010,3 hPa 0,0 l/m² 15,1 km/h (3 Bft) W-SW 247 ° 10,9 °C 14,9 °C
07.11.2018 14:13 24,4 °C 18,3 °C 47 % 61 % 1010,3 hPa 0,0 l/m² 8,3 km/h (2 Bft) SW 225 ° 10,6 °C 17,4 °C
07.11.2018 14:23 24,5 °C 18,3 °C 46 % 60 % 1010,2 hPa 0,0 l/m² 9,0 km/h (2 Bft) SW 225 ° 10,4 °C 17,1 °C
07.11.2018 14:33 24,4 °C 18,5 °C 46 % 60 % 1010,3 hPa 0,0 l/m² 8,6 km/h (2 Bft) S 180 ° 10,6 °C 17,5 °C
07.11.2018 14:43 24,4 °C 18,5 °C 46 % 60 % 1010,1 hPa 0,0 l/m² 8,3 km/h (2 Bft) S-SO 157 ° 10,6 °C 17,6 °C
07.11.2018 14:53 24,4 °C 18,2 °C 46 % 60 % 1010,2 hPa 0,0 l/m² 6,5 km/h (2 Bft) S-SW 202 ° 10,3 °C 18,2 °C
07.11.2018 15:03 24,3 °C 17,9 °C 46 % 61 % 1010,3 hPa 0,0 l/m² 5,0 km/h (1 Bft) S 180 ° 10,3 °C 17,9 °C
07.11.2018 15:13 24,3 °C 17,8 °C 46 % 61 % 1010,3 hPa 0,0 l/m² 10,8 km/h (2 Bft) S 180 ° 10,2 °C 15,9 °C
07.11.2018 15:23 24,2 °C 17,5 °C 46 % 62 % 1010,3 hPa 0,0 l/m² 4,7 km/h (1 Bft) S 180 ° 10,1 °C 17,5 °C
07.11.2018 15:33 24,2 °C 17,4 °C 46 % 62 % 1010,3 hPa 0,0 l/m² 6,8 km/h (2 Bft) S-SO 157 ° 10,0 °C 17,2 °C
07.11.2018 15:43 24,2 °C 17,3 °C 46 % 62 % 1010,6 hPa 0,0 l/m² 5,4 km/h (2 Bft) S-SO 157 ° 9,9 °C 17,3 °C
07.11.2018 15:53 24,1 °C 17,1 °C 46 % 62 % 1010,6 hPa 0,0 l/m² 4,3 km/h (1 Bft) S-SO 157 ° 9,8 °C 17,1 °C
07.11.2018 16:03 24,1 °C 16,6 °C 47 % 63 % 1010,5 hPa 0,0 l/m² 5,0 km/h (1 Bft) S-SO 157 ° 9,5 °C 16,6 °C
07.11.2018 16:13 24,0 °C 16,2 °C 47 % 65 % 1010,7 hPa 0,0 l/m² 2,9 km/h (1 Bft) S-SO 157 ° 9,6 °C 16,2 °C
07.11.2018 16:23 24,0 °C 15,5 °C 46 % 66 % 1010,8 hPa 0,0 l/m² 3,6 km/h (1 Bft) S-SO 157 ° 9,2 °C 15,5 °C
07.11.2018 16:33 24,0 °C 14,4 °C 46 % 68 % 1010,8 hPa 0,0 l/m² 2,9 km/h (1 Bft) S-SO 157 ° 8,6 °C 14,4 °C
07.11.2018 16:43 24,0 °C 13,8 °C 46 % 70 % 1010,8 hPa 0,0 l/m² 1,1 km/h (1 Bft) S-SO 157 ° 8,4 °C 13,8 °C
07.11.2018 16:53 24,0 °C 12,6 °C 47 % 72 % 1011,0 hPa 0,0 l/m² 5,0 km/h (1 Bft) S-SO 157 ° 7,7 °C 12,6 °C
07.11.2018 17:03 24,0 °C 11,6 °C 47 % 73 % 1011,0 hPa 0,0 l/m² 3,2 km/h (1 Bft) S-SO 157 ° 6,9 °C 11,6 °C
07.11.2018 17:13 24,0 °C 10,9 °C 47 % 75 % 1011,1 hPa 0,0 l/m² 0,0 km/h (0 Bft) S-SO 157 ° 6,6 °C 10,9 °C
07.11.2018 17:23 24,1 °C 10,4 °C 47 % 77 % 1011,2 hPa 0,0 l/m² 0,0 km/h (0 Bft) S-SO 157 ° 6,5 °C 10,4 °C
07.11.2018 17:33 24,1 °C 10,1 °C 47 % 78 % 1011,3 hPa 0,0 l/m² 2,5 km/h (1 Bft) S-SO 157 ° 6,4 °C 10,1 °C
07.11.2018 17:43 24,2 °C 9,8 °C 47 % 80 % 1011,2 hPa 0,0 l/m² 0,0 km/h (0 Bft) S-SO 157 ° 6,5 °C 9,8 °C
07.11.2018 17:53 24,2 °C 9,5 °C 47 % 80 % 1011,2 hPa 0,0 l/m² 0,0 km/h (0 Bft) S-SO 157 ° 6,2 °C 9,5 °C
07.11.2018 18:03 24,2 °C 9,0 °C 47 % 81 % 1011,3 hPa 0,0 l/m² 0,0 km/h (0 Bft) S-SO 157 ° 5,9 °C 9,0 °C
07.11.2018 18:13 24,2 °C 8,6 °C 47 % 82 % 1011,5 hPa 0,0 l/m² 0,0 km/h (0 Bft) S-SO 157 ° 5,7 °C 8,6 °C
07.11.2018 18:23 24,1 °C 8,2 °C 47 % 82 % 1011,6 hPa 0,0 l/m² 0,0 km/h (0 Bft) S-SO 157 ° 5,3 °C 8,2 °C
07.11.2018 18:33 24,1 °C 7,9 °C 48 % 83 % 1011,5 hPa 0,0 l/m² 0,0 km/h (0 Bft) S-SO 157 ° 5,2 °C 7,9 °C
07.11.2018 18:43 24,2 °C 7,6 °C 49 % 84 % 1011,6 hPa 0,0 l/m² 2,2 km/h (1 Bft) S-SO 157 ° 5,1 °C 7,6 °C
07.11.2018 18:53 24,2 °C 7,6 °C 50 % 85 % 1011,6 hPa 0,0 l/m² 0,0 km/h (0 Bft) S-SO 157 ° 5,2 °C 7,6 °C
07.11.2018 19:03 24,2 °C 7,3 °C 50 % 85 % 1011,6 hPa 0,0 l/m² 0,0 km/h (0 Bft) S-SO 157 ° 4,9 °C 7,3 °C
07.11.2018 19:13 24,2 °C 7,0 °C 50 % 85 % 1011,8 hPa 0,0 l/m² 0,0 km/h (0 Bft) S-SO 157 ° 4,7 °C 7,0 °C
07.11.2018 19:23 24,2 °C 6,7 °C 50 % 86 % 1011,9 hPa 0,0 l/m² 0,0 km/h (0 Bft) S-SO 157 ° 4,5 °C 6,7 °C
07.11.2018 19:33 24,2 °C 6,4 °C 50 % 87 % 1011,9 hPa 0,0 l/m² 0,0 km/h (0 Bft) S-SO 157 ° 4,4 °C 6,4 °C
07.11.2018 19:43 24,2 °C 6,2 °C 50 % 87 % 1012,0 hPa 0,0 l/m² 0,0 km/h (0 Bft) SO 135 ° 4,2 °C 6,2 °C
07.11.2018 19:53 24,2 °C 5,9 °C 50 % 87 % 1012,0 hPa 0,0 l/m² 0,0 km/h (0 Bft) SO 135 ° 3,9 °C 5,9 °C
07.11.2018 20:03 24,2 °C 5,8 °C 50 % 88 % 1012,2 hPa 0,0 l/m² 0,0 km/h (0 Bft) SO 135 ° 4,0 °C 5,8 °C
07.11.2018 20:13 24,2 °C 5,6 °C 50 % 88 % 1012,2 hPa 0,0 l/m² 0,0 km/h (0 Bft) SO 135 ° 3,8 °C 5,6 °C
07.11.2018 20:23 24,2 °C 5,4 °C 49 % 89 % 1012,4 hPa 0,0 l/m² 0,0 km/h (0 Bft) SO 135 ° 3,7 °C 5,4 °C
07.11.2018 20:33 24,2 °C 5,4 °C 48 % 89 % 1012,4 hPa 0,0 l/m² 0,0 km/h (0 Bft) SO 135 ° 3,7 °C 5,4 °C
07.11.2018 20:43 24,2 °C 5,3 °C 48 % 89 % 1012,5 hPa 0,0 l/m² 0,0 km/h (0 Bft) SO 135 ° 3,6 °C 5,3 °C
07.11.2018 20:53 24,2 °C 5,0 °C 48 % 89 % 1012,4 hPa 0,0 l/m² 0,0 km/h (0 Bft) SO 135 ° 3,3 °C 5,0 °C
07.11.2018 21:03 24,2 °C 4,9 °C 48 % 89 % 1012,6 hPa 0,0 l/m² 2,2 km/h (1 Bft) SO 135 ° 3,2 °C 4,9 °C
07.11.2018 21:13 24,1 °C 4,8 °C 48 % 90 % 1012,8 hPa 0,0 l/m² 0,0 km/h (0 Bft) SO 135 ° 3,3 °C 4,8 °C
07.11.2018 21:23 24,1 °C 4,7 °C 48 % 90 % 1012,8 hPa 0,0 l/m² 0,0 km/h (0 Bft) SO 135 ° 3,2 °C 4,7 °C
07.11.2018 21:33 24,1 °C 4,6 °C 48 % 90 % 1012,8 hPa 0,0 l/m² 0,0 km/h (0 Bft) SO 135 ° 3,1 °C 4,6 °C
07.11.2018 21:43 24,1 °C 4,3 °C 48 % 90 % 1012,6 hPa 0,0 l/m² 0,0 km/h (0 Bft) SO 135 ° 2,8 °C 4,3 °C
07.11.2018 21:53 24,1 °C 4,3 °C 48 % 90 % 1012,8 hPa 0,0 l/m² 0,0 km/h (0 Bft) SO 135 ° 2,8 °C 4,3 °C
07.11.2018 22:03 24,0 °C 4,3 °C 48 % 90 % 1013,1 hPa 0,0 l/m² 1,4 km/h (1 Bft) SO 135 ° 2,8 °C 4,3 °C
07.11.2018 22:13 24,0 °C 4,3 °C 49 % 90 % 1013,2 hPa 0,0 l/m² 0,0 km/h (0 Bft) SO 135 ° 2,8 °C 4,3 °C
07.11.2018 22:23 24,0 °C 4,4 °C 49 % 91 % 1013,2 hPa 0,0 l/m² 1,8 km/h (1 Bft) SO 135 ° 3,1 °C 4,4 °C
07.11.2018 22:33 23,9 °C 4,2 °C 49 % 91 % 1013,4 hPa 0,0 l/m² 0,0 km/h (0 Bft) SO 135 ° 2,9 °C 4,2 °C
07.11.2018 22:43 23,9 °C 4,2 °C 49 % 91 % 1013,5 hPa 0,0 l/m² 0,0 km/h (0 Bft) SO 135 ° 2,9 °C 4,2 °C
07.11.2018 22:53 23,9 °C 4,1 °C 49 % 91 % 1013,7 hPa 0,0 l/m² 0,0 km/h (0 Bft) SO 135 ° 2,8 °C 4,1 °C
07.11.2018 23:03 23,9 °C 3,9 °C 49 % 91 % 1013,6 hPa 0,0 l/m² 0,0 km/h (0 Bft) SO 135 ° 2,6 °C 3,9 °C
07.11.2018 23:13 23,8 °C 3,8 °C 49 % 91 % 1013,8 hPa 0,0 l/m² 0,0 km/h (0 Bft) SO 135 ° 2,5 °C 3,8 °C
07.11.2018 23:23 23,8 °C 3,7 °C 49 % 91 % 1013,9 hPa 0,0 l/m² 0,0 km/h (0 Bft) SO 135 ° 2,4 °C 3,7 °C
07.11.2018 23:33 23,8 °C 3,6 °C 49 % 91 % 1014,0 hPa 0,0 l/m² 3,2 km/h (1 Bft) SO 135 ° 2,3 °C 3,6 °C
07.11.2018 23:43 23,8 °C 3,8 °C 49 % 92 % 1014,0 hPa 0,0 l/m² 2,2 km/h (1 Bft) SO 135 ° 2,6 °C 3,8 °C
07.11.2018 23:53 23,7 °C 3,8 °C 49 % 91 % 1013,9 hPa 0,0 l/m² 0,0 km/h (0 Bft) SO 135 ° 2,5 °C 3,8 °C
_ Min-Zeit 08:23 06:33 16:43 14:53 00:03 - 23:53 - - 06:33 06:33
Minimum _ 23,2 °C 2,1 °C 46 % 60 % 1008,1 hPa - 0,0 km/h (0 Bft) - - 1,2 °C 2,1 °C
_ Max-Zeit 14:23 14:43 04:53 10:23 23:43 23:53 11:53 - - 11:23 14:53
Maximum _ 24,5 °C 18,5 °C 51 % 94 % 1014,0 hPa 0,0 l/m² 16,9 km/h
SW (3 Bft)
- - 12,1 °C 18,2 °C
Durchschnitt _ 23,9 °C 7,8 °C 49 % 86 % 1010,4 hPa #0,0 l/m² 2,5 km/h (1 Bft) O - 5,3 °C 7,5 °C
© 2009 Mathias Hoßbach